createdAt,value
2022-11-25T06:02:44.674Z,101243.84
2022-11-25T06:08:09.885Z,101237.41
2022-11-25T06:13:31.756Z,101247.25
2022-11-25T06:18:53.224Z,101250.50
2022-11-25T06:24:15.629Z,101249.78
2022-11-25T06:29:38.981Z,101262.88
2022-11-25T06:34:59.761Z,101248.59
2022-11-25T06:40:43.822Z,101251.13
2022-11-25T06:46:06.206Z,101255.44
2022-11-25T06:51:27.115Z,101258.28
2022-11-25T06:56:53.665Z,101259.50
2022-11-25T07:02:14.936Z,101254.75
2022-11-25T07:07:36.244Z,101259.22
2022-11-25T07:12:59.427Z,101268.03
2022-11-25T07:18:20.191Z,101269.06
2022-11-25T07:23:42.300Z,101271.00
2022-11-25T07:29:13.909Z,101279.22
2022-11-25T07:34:44.266Z,101274.94
2022-11-25T07:40:06.104Z,101277.91
2022-11-25T07:45:27.059Z,101275.28
2022-11-25T07:51:00.484Z,101284.69
2022-11-25T07:56:21.853Z,101285.91
2022-11-25T08:01:43.735Z,101282.06
2022-11-25T08:07:04.735Z,101287.59
2022-11-25T08:12:25.691Z,101295.09
2022-11-25T08:17:46.535Z,101288.69
2022-11-25T08:23:07.693Z,101287.50
2022-11-25T08:28:28.779Z,101291.38
2022-11-25T08:33:50.566Z,101288.50
2022-11-25T08:39:36.396Z,101296.75
2022-11-25T08:44:55.382Z,101293.28
2022-11-25T08:50:16.247Z,101302.69
2022-11-25T08:55:39.040Z,101310.75
2022-11-25T09:00:59.800Z,101316.41
2022-11-25T09:06:21.073Z,101316.72
2022-11-25T09:11:42.632Z,101327.72
2022-11-25T09:17:07.701Z,101325.34
2022-11-25T09:22:28.474Z,101331.56
2022-11-25T09:27:49.333Z,101332.78
2022-11-25T09:33:09.999Z,101333.78
2022-11-25T09:38:31.062Z,101328.66
2022-11-25T09:44:24.351Z,101332.38
2022-11-25T09:50:00.507Z,101332.50
2022-11-25T09:55:25.456Z,101332.66
2022-11-25T10:00:49.931Z,101339.34
2022-11-25T10:06:36.907Z,101338.31
2022-11-25T10:12:25.146Z,101336.44
2022-11-25T10:17:52.117Z,101330.25
2022-11-25T10:23:27.795Z,101326.31
2022-11-25T10:29:05.844Z,101327.09
2022-11-25T10:34:42.180Z,101324.50
2022-11-25T10:40:04.106Z,101320.63
2022-11-25T10:45:35.622Z,101325.06
2022-11-25T10:51:05.584Z,101324.59
2022-11-25T10:56:26.659Z,101316.41
2022-11-25T11:01:47.656Z,101320.75
2022-11-25T11:07:09.510Z,101316.00
2022-11-25T11:12:30.762Z,101306.88
2022-11-25T11:17:52.039Z,101306.09
2022-11-25T11:23:14.414Z,101314.31
2022-11-25T11:28:35.076Z,101309.69
2022-11-25T11:34:04.369Z,101311.72
2022-11-25T11:39:38.300Z,101308.72
2022-11-25T11:45:18.116Z,101308.22
2022-11-25T11:50:45.858Z,101302.38
2022-11-25T11:56:38.044Z,101308.91
2022-11-25T12:02:04.677Z,101308.13
2022-11-25T12:07:44.405Z,101302.13
2022-11-25T12:13:17.512Z,101300.16
2022-11-25T12:19:00.805Z,101299.00
2022-11-25T12:24:36.964Z,101296.94
2022-11-25T12:30:10.389Z,101296.22
2022-11-25T12:35:43.582Z,101302.47
2022-11-25T12:41:24.965Z,101303.50
2022-11-25T12:46:57.789Z,101299.91
2022-11-25T12:52:52.843Z,101306.81
2022-11-25T12:58:13.667Z,101310.59
2022-11-25T13:04:20.932Z,101302.72
2022-11-25T13:10:10.937Z,101301.78
2022-11-25T13:15:40.049Z,101304.22
2022-11-25T13:21:14.682Z,101307.13
2022-11-25T13:26:38.066Z,101308.34
2022-11-25T13:32:03.161Z,101305.28
2022-11-25T13:37:40.747Z,101316.06
2022-11-25T13:43:01.988Z,101321.50
2022-11-25T13:48:37.109Z,101319.28
2022-11-25T13:54:01.685Z,101319.94
2022-11-25T13:59:47.733Z,101324.88
2022-11-25T14:05:17.962Z,101339.44
2022-11-25T14:11:06.490Z,101350.06
2022-11-25T14:16:55.521Z,101354.75
2022-11-25T14:22:28.423Z,101346.44
2022-11-25T14:28:02.338Z,101343.34
2022-11-25T14:33:32.743Z,101359.66
2022-11-25T14:39:00.689Z,101363.44
2022-11-25T14:44:28.885Z,101361.22
2022-11-25T14:50:18.894Z,101373.50
2022-11-25T14:55:39.648Z,101372.94
2022-11-25T15:01:16.766Z,101368.81
2022-11-25T15:06:47.655Z,101375.25
2022-11-25T15:12:15.534Z,101394.06
2022-11-25T15:17:39.403Z,101395.31
2022-11-25T15:23:01.473Z,101395.31
2022-11-25T15:28:22.502Z,101398.78
2022-11-25T15:33:44.148Z,101407.00
2022-11-25T15:39:24.381Z,101404.16
2022-11-25T15:44:47.749Z,101401.34
2022-11-25T15:50:26.416Z,101399.28
2022-11-25T15:55:47.353Z,101397.19
2022-11-25T16:01:17.362Z,101403.75
2022-11-25T16:06:53.213Z,101412.25
2022-11-25T16:12:17.927Z,101396.00
2022-11-25T16:17:39.288Z,101409.28
2022-11-25T16:23:06.973Z,101411.84
2022-11-25T16:28:28.437Z,101412.56
2022-11-25T16:33:53.067Z,101421.06
2022-11-25T16:39:14.341Z,101416.75
2022-11-25T16:44:36.353Z,101416.59
2022-11-25T16:49:57.053Z,101421.69
2022-11-25T16:55:18.636Z,101421.53
2022-11-25T17:00:39.337Z,101430.06
2022-11-25T17:06:00.306Z,101430.06
2022-11-25T17:11:27.710Z,101434.38
2022-11-25T17:16:48.651Z,101433.63
2022-11-25T17:22:19.023Z,101442.28
2022-11-25T17:27:41.372Z,101447.38
2022-11-25T17:33:06.411Z,101460.78
2022-11-25T17:38:27.071Z,101459.00
2022-11-25T17:43:50.285Z,101457.19
2022-11-25T17:49:15.534Z,101459.00
2022-11-25T17:54:36.626Z,101465.69
2022-11-25T17:59:57.759Z,101466.16
2022-11-25T18:05:21.629Z,101473.34
2022-11-25T18:10:46.349Z,101478.09
2022-11-25T18:16:08.363Z,101475.56
2022-11-25T18:21:29.179Z,101481.41
2022-11-25T18:26:53.063Z,101477.97
2022-11-25T18:32:13.835Z,101492.28
2022-11-25T18:43:34.905Z,101491.22
2022-11-25T18:48:56.407Z,101502.72
2022-11-25T18:54:17.538Z,101510.34
2022-11-25T18:59:38.355Z,101506.94
2022-11-25T19:04:59.178Z,101507.66
2022-11-25T19:10:22.634Z,101517.66
2022-11-25T19:15:45.371Z,101522.00
2022-11-25T19:21:06.632Z,101517.66
2022-11-25T19:26:29.908Z,101537.22
2022-11-25T19:31:54.036Z,101539.00
2022-11-25T19:37:20.643Z,101541.53
2022-11-25T19:42:41.994Z,101549.13
2022-11-25T19:48:07.667Z,101556.91
2022-11-25T19:53:33.514Z,101562.75
2022-11-25T19:58:57.248Z,101564.69
2022-11-25T20:04:22.213Z,101570.63
2022-11-25T20:09:43.835Z,101580.06
2022-11-25T20:15:05.117Z,101579.28
2022-11-25T20:20:30.667Z,101588.72
2022-11-25T20:25:51.652Z,101592.13
2022-11-25T20:31:13.978Z,101602.63
2022-11-25T20:36:35.029Z,101605.16
2022-11-25T20:41:55.756Z,101611.28
2022-11-25T20:47:19.554Z,101616.34
2022-11-25T20:52:41.195Z,101621.41
2022-11-25T20:58:11.294Z,101632.47
2022-11-25T21:03:32.240Z,101623.19
2022-11-25T21:08:53.859Z,101633.50
2022-11-25T21:14:19.768Z,101645.03
2022-11-25T21:19:40.738Z,101637.69
2022-11-25T21:25:01.766Z,101650.56
2022-11-25T21:30:32.456Z,101649.78
2022-11-25T21:35:53.721Z,101649.06
2022-11-25T21:41:15.062Z,101658.63
2022-11-25T21:46:35.883Z,101656.22
2022-11-25T21:51:56.656Z,101667.13
2022-11-25T21:57:27.202Z,101672.22
2022-11-25T22:02:48.628Z,101678.50
2022-11-25T22:08:09.467Z,101681.06
2022-11-25T22:13:37.917Z,101687.75
2022-11-25T22:18:59.666Z,101687.75
2022-11-25T22:24:21.559Z,101690.16
2022-11-25T22:29:42.811Z,101688.94
2022-11-25T22:35:13.999Z,101698.78
2022-11-25T22:40:34.927Z,101702.09
2022-11-25T22:45:56.440Z,101713.13
2022-11-25T22:51:21.267Z,101718.22
2022-11-25T22:56:42.415Z,101710.59
